sensor_id;sensor_type;location;lat;lon;timestamp;temperature;humidity
43673;DHT22;41723;49.326;8.430;2022-11-20T00:00:44;5.50;99.90
43673;DHT22;41723;49.326;8.430;2022-11-20T00:03:09;5.50;99.90
43673;DHT22;41723;49.326;8.430;2022-11-20T00:05:35;5.60;99.90
43673;DHT22;41723;49.326;8.430;2022-11-20T00:08:00;5.60;99.90
43673;DHT22;41723;49.326;8.430;2022-11-20T00:10:27;5.50;99.90
43673;DHT22;41723;49.326;8.430;2022-11-20T00:12:53;5.60;99.90
43673;DHT22;41723;49.326;8.430;2022-11-20T00:15:18;5.60;99.90
43673;DHT22;41723;49.326;8.430;2022-11-20T00:17:44;5.60;99.90
43673;DHT22;41723;49.326;8.430;2022-11-20T00:20:10;5.80;99.90
43673;DHT22;41723;49.326;8.430;2022-11-20T00:22:36;5.70;99.90
43673;DHT22;41723;49.326;8.430;2022-11-20T00:25:01;5.80;99.90
43673;DHT22;41723;49.326;8.430;2022-11-20T00:27:27;5.60;99.90
43673;DHT22;41723;49.326;8.430;2022-11-20T00:29:53;5.60;99.90
43673;DHT22;41723;49.326;8.430;2022-11-20T00:32:19;5.50;99.90
43673;DHT22;41723;49.326;8.430;2022-11-20T00:34:45;5.50;99.90
43673;DHT22;41723;49.326;8.430;2022-11-20T00:37:10;5.50;99.90
43673;DHT22;41723;49.326;8.430;2022-11-20T00:39:36;5.70;99.90
43673;DHT22;41723;49.326;8.430;2022-11-20T00:42:01;5.70;99.90
43673;DHT22;41723;49.326;8.430;2022-11-20T00:44:27;5.60;99.90
43673;DHT22;41723;49.326;8.430;2022-11-20T00:46:53;5.60;99.90
43673;DHT22;41723;49.326;8.430;2022-11-20T00:49:20;5.60;99.90
43673;DHT22;41723;49.326;8.430;2022-11-20T00:51:46;5.70;99.90
43673;DHT22;41723;49.326;8.430;2022-11-20T00:54:12;5.80;99.90
43673;DHT22;41723;49.326;8.430;2022-11-20T00:56:37;5.80;99.90
43673;DHT22;41723;49.326;8.430;2022-11-20T00:59:03;5.80;99.90
43673;DHT22;41723;49.326;8.430;2022-11-20T01:01:29;5.80;99.90
43673;DHT22;41723;49.326;8.430;2022-11-20T01:03:55;5.80;99.90
43673;DHT22;41723;49.326;8.430;2022-11-20T01:06:22;5.60;99.90
43673;DHT22;41723;49.326;8.430;2022-11-20T01:08:48;5.60;99.90
43673;DHT22;41723;49.326;8.430;2022-11-20T01:11:16;5.50;99.90
43673;DHT22;41723;49.326;8.430;2022-11-20T01:13:42;5.40;99.90
43673;DHT22;41723;49.326;8.430;2022-11-20T01:16:12;5.40;99.90
43673;DHT22;41723;49.326;8.430;2022-11-20T01:18:40;5.20;99.90
43673;DHT22;41723;49.326;8.430;2022-11-20T01:21:07;5.10;99.90
43673;DHT22;41723;49.326;8.430;2022-11-20T01:23:33;5.10;99.90
43673;DHT22;41723;49.326;8.430;2022-11-20T01:26:00;5.10;99.90
43673;DHT22;41723;49.326;8.430;2022-11-20T01:28:26;5.00;99.90
43673;DHT22;41723;49.326;8.430;2022-11-20T01:30:53;5.10;99.90
43673;DHT22;41723;49.326;8.430;2022-11-20T01:33:18;5.00;99.90
43673;DHT22;41723;49.326;8.430;2022-11-20T01:35:44;5.00;99.90
43673;DHT22;41723;49.326;8.430;2022-11-20T01:38:10;5.10;99.90
43673;DHT22;41723;49.326;8.430;2022-11-20T01:40:35;5.10;99.90
43673;DHT22;41723;49.326;8.430;2022-11-20T01:43:09;5.30;99.90
43673;DHT22;41723;49.326;8.430;2022-11-20T01:46:00;5.50;99.90
43673;DHT22;41723;49.326;8.430;2022-11-20T01:48:29;5.60;99.90
43673;DHT22;41723;49.326;8.430;2022-11-20T01:50:55;5.50;99.90
43673;DHT22;41723;49.326;8.430;2022-11-20T01:53:21;5.30;99.90
43673;DHT22;41723;49.326;8.430;2022-11-20T01:55:50;5.10;99.90
43673;DHT22;41723;49.326;8.430;2022-11-20T01:58:17;5.10;99.90
43673;DHT22;41723;49.326;8.430;2022-11-20T02:00:44;5.10;99.90
43673;DHT22;41723;49.326;8.430;2022-11-20T02:03:11;5.10;99.90
43673;DHT22;41723;49.326;8.430;2022-11-20T02:08:15;5.30;99.90
43673;DHT22;41723;49.326;8.430;2022-11-20T02:10:41;5.40;99.90
43673;DHT22;41723;49.326;8.430;2022-11-20T02:13:07;5.40;99.90
43673;DHT22;41723;49.326;8.430;2022-11-20T02:15:52;5.40;99.90
43673;DHT22;41723;49.326;8.430;2022-11-20T02:18:18;5.30;99.90
43673;DHT22;41723;49.326;8.430;2022-11-20T02:20:45;5.30;99.90
43673;DHT22;41723;49.326;8.430;2022-11-20T02:23:33;5.50;99.90
43673;DHT22;41723;49.326;8.430;2022-11-20T02:25:57;5.30;99.90
43673;DHT22;41723;49.326;8.430;2022-11-20T02:28:23;5.30;99.90
43673;DHT22;41723;49.326;8.430;2022-11-20T02:30:49;5.40;99.90
43673;DHT22;41723;49.326;8.430;2022-11-20T02:33:15;5.40;99.90
43673;DHT22;41723;49.326;8.430;2022-11-20T02:35:44;5.40;99.90
43673;DHT22;41723;49.326;8.430;2022-11-20T02:38:10;5.40;99.90
43673;DHT22;41723;49.326;8.430;2022-11-20T02:40:36;5.50;99.90
43673;DHT22;41723;49.326;8.430;2022-11-20T02:43:02;5.60;99.90
43673;DHT22;41723;49.326;8.430;2022-11-20T02:45:27;5.60;99.90
43673;DHT22;41723;49.326;8.430;2022-11-20T02:47:53;5.50;99.90
43673;DHT22;41723;49.326;8.430;2022-11-20T02:50:19;5.50;99.90
43673;DHT22;41723;49.326;8.430;2022-11-20T02:52:44;5.40;99.90
43673;DHT22;41723;49.326;8.430;2022-11-20T02:55:10;5.60;99.90
43673;DHT22;41723;49.326;8.430;2022-11-20T02:57:36;5.80;99.90
43673;DHT22;41723;49.326;8.430;2022-11-20T03:00:02;5.80;99.90
43673;DHT22;41723;49.326;8.430;2022-11-20T03:02:31;5.80;99.90
43673;DHT22;41723;49.326;8.430;2022-11-20T03:04:56;5.80;99.90
43673;DHT22;41723;49.326;8.430;2022-11-20T03:07:22;5.80;99.90
43673;DHT22;41723;49.326;8.430;2022-11-20T03:09:48;5.80;99.90
43673;DHT22;41723;49.326;8.430;2022-11-20T03:12:13;5.80;99.90
43673;DHT22;41723;49.326;8.430;2022-11-20T03:14:39;5.80;99.90
43673;DHT22;41723;49.326;8.430;2022-11-20T03:17:05;5.80;99.90
43673;DHT22;41723;49.326;8.430;2022-11-20T03:19:31;5.70;99.90
43673;DHT22;41723;49.326;8.430;2022-11-20T03:21:56;5.50;99.90
43673;DHT22;41723;49.326;8.430;2022-11-20T03:24:22;5.30;99.90
43673;DHT22;41723;49.326;8.430;2022-11-20T03:26:47;5.20;99.90
43673;DHT22;41723;49.326;8.430;2022-11-20T03:29:13;5.20;99.90
43673;DHT22;41723;49.326;8.430;2022-11-20T03:31:39;5.10;99.90
43673;DHT22;41723;49.326;8.430;2022-11-20T03:34:05;5.00;99.90
43673;DHT22;41723;49.326;8.430;2022-11-20T03:36:31;4.90;99.90
43673;DHT22;41723;49.326;8.430;2022-11-20T03:38:57;4.80;99.90
43673;DHT22;41723;49.326;8.430;2022-11-20T03:41:24;4.70;99.90
43673;DHT22;41723;49.326;8.430;2022-11-20T03:43:51;4.90;99.90
43673;DHT22;41723;49.326;8.430;2022-11-20T03:46:16;5.10;99.90
43673;DHT22;41723;49.326;8.430;2022-11-20T03:48:42;5.10;99.90
43673;DHT22;41723;49.326;8.430;2022-11-20T03:51:12;5.20;99.90
43673;DHT22;41723;49.326;8.430;2022-11-20T03:53:38;5.40;99.90
43673;DHT22;41723;49.326;8.430;2022-11-20T03:56:04;5.60;99.90
43673;DHT22;41723;49.326;8.430;2022-11-20T03:58:30;5.60;99.90
43673;DHT22;41723;49.326;8.430;2022-11-20T04:00:55;5.70;99.90
43673;DHT22;41723;49.326;8.430;2022-11-20T04:03:21;5.80;99.90
43673;DHT22;41723;49.326;8.430;2022-11-20T04:05:47;5.90;99.90
43673;DHT22;41723;49.326;8.430;2022-11-20T04:08:12;5.80;99.90
43673;DHT22;41723;49.326;8.430;2022-11-20T04:10:38;5.60;99.90
43673;DHT22;41723;49.326;8.430;2022-11-20T04:13:03;5.60;99.90
43673;DHT22;41723;49.326;8.430;2022-11-20T04:15:29;5.60;99.90
43673;DHT22;41723;49.326;8.430;2022-11-20T04:17:55;5.60;99.90
43673;DHT22;41723;49.326;8.430;2022-11-20T04:20:21;5.90;99.90
43673;DHT22;41723;49.326;8.430;2022-11-20T04:22:46;5.90;99.90
43673;DHT22;41723;49.326;8.430;2022-11-20T04:25:12;6.00;99.90
43673;DHT22;41723;49.326;8.430;2022-11-20T04:27:37;6.00;99.90
43673;DHT22;41723;49.326;8.430;2022-11-20T04:30:03;6.10;99.90
43673;DHT22;41723;49.326;8.430;2022-11-20T04:32:29;6.10;99.90
43673;DHT22;41723;49.326;8.430;2022-11-20T04:34:54;6.00;99.90
43673;DHT22;41723;49.326;8.430;2022-11-20T04:37:20;6.10;99.90
43673;DHT22;41723;49.326;8.430;2022-11-20T04:39:46;5.70;99.90
43673;DHT22;41723;49.326;8.430;2022-11-20T04:42:11;5.60;99.90
43673;DHT22;41723;49.326;8.430;2022-11-20T04:44:55;5.70;99.90
43673;DHT22;41723;49.326;8.430;2022-11-20T04:47:22;5.50;99.90
43673;DHT22;41723;49.326;8.430;2022-11-20T04:49:47;5.40;99.90
43673;DHT22;41723;49.326;8.430;2022-11-20T04:52:13;5.60;99.90
43673;DHT22;41723;49.326;8.430;2022-11-20T04:54:39;5.70;99.90
43673;DHT22;41723;49.326;8.430;2022-11-20T04:57:05;5.80;99.90
43673;DHT22;41723;49.326;8.430;2022-11-20T04:59:31;5.90;99.90
43673;DHT22;41723;49.326;8.430;2022-11-20T05:01:56;6.00;99.90
43673;DHT22;41723;49.326;8.430;2022-11-20T05:04:22;6.00;99.90
43673;DHT22;41723;49.326;8.430;2022-11-20T05:06:49;6.10;99.90
43673;DHT22;41723;49.326;8.430;2022-11-20T05:09:14;6.10;99.90
43673;DHT22;41723;49.326;8.430;2022-11-20T05:11:40;6.20;99.90
43673;DHT22;41723;49.326;8.430;2022-11-20T05:14:06;6.20;99.90
43673;DHT22;41723;49.326;8.430;2022-11-20T05:16:33;6.10;99.90
43673;DHT22;41723;49.326;8.430;2022-11-20T05:18:59;6.20;99.90
43673;DHT22;41723;49.326;8.430;2022-11-20T05:21:24;6.20;99.90
43673;DHT22;41723;49.326;8.430;2022-11-20T05:23:50;6.30;99.90
43673;DHT22;41723;49.326;8.430;2022-11-20T05:26:20;6.40;99.90
43673;DHT22;41723;49.326;8.430;2022-11-20T05:28:47;6.40;99.90
43673;DHT22;41723;49.326;8.430;2022-11-20T05:31:20;6.50;99.90
43673;DHT22;41723;49.326;8.430;2022-11-20T05:33:46;6.40;99.90
43673;DHT22;41723;49.326;8.430;2022-11-20T05:36:13;6.50;99.90
43673;DHT22;41723;49.326;8.430;2022-11-20T05:38:39;6.40;99.90
43673;DHT22;41723;49.326;8.430;2022-11-20T05:41:13;6.30;99.90
43673;DHT22;41723;49.326;8.430;2022-11-20T05:43:40;6.30;99.90
43673;DHT22;41723;49.326;8.430;2022-11-20T05:46:06;6.20;99.90
43673;DHT22;41723;49.326;8.430;2022-11-20T05:48:32;6.20;99.90
43673;DHT22;41723;49.326;8.430;2022-11-20T05:50:59;6.20;99.90
43673;DHT22;41723;49.326;8.430;2022-11-20T05:53:25;6.20;99.90
43673;DHT22;41723;49.326;8.430;2022-11-20T05:56:00;6.20;99.90
43673;DHT22;41723;49.326;8.430;2022-11-20T05:58:26;6.20;99.90
43673;DHT22;41723;49.326;8.430;2022-11-20T06:00:52;6.20;99.90
43673;DHT22;41723;49.326;8.430;2022-11-20T06:03:17;6.20;99.90
43673;DHT22;41723;49.326;8.430;2022-11-20T06:05:43;6.40;99.90
43673;DHT22;41723;49.326;8.430;2022-11-20T06:08:09;6.40;99.90
43673;DHT22;41723;49.326;8.430;2022-11-20T06:10:34;6.50;99.90
43673;DHT22;41723;49.326;8.430;2022-11-20T06:13:00;6.50;99.90
43673;DHT22;41723;49.326;8.430;2022-11-20T06:15:25;6.60;99.90
43673;DHT22;41723;49.326;8.430;2022-11-20T06:17:52;6.70;99.90
43673;DHT22;41723;49.326;8.430;2022-11-20T06:20:17;6.70;99.90
43673;DHT22;41723;49.326;8.430;2022-11-20T06:22:43;6.60;99.90
43673;DHT22;41723;49.326;8.430;2022-11-20T06:25:08;6.60;99.90
43673;DHT22;41723;49.326;8.430;2022-11-20T06:27:34;6.60;99.90
43673;DHT22;41723;49.326;8.430;2022-11-20T06:30:00;6.60;99.90
43673;DHT22;41723;49.326;8.430;2022-11-20T06:32:25;6.50;99.90
43673;DHT22;41723;49.326;8.430;2022-11-20T06:34:51;6.50;99.90
43673;DHT22;41723;49.326;8.430;2022-11-20T06:37:16;6.40;99.90
43673;DHT22;41723;49.326;8.430;2022-11-20T06:39:42;6.40;99.90
43673;DHT22;41723;49.326;8.430;2022-11-20T06:42:07;6.40;99.90
43673;DHT22;41723;49.326;8.430;2022-11-20T06:44:33;6.40;99.90
43673;DHT22;41723;49.326;8.430;2022-11-20T06:46:59;6.40;99.90
43673;DHT22;41723;49.326;8.430;2022-11-20T06:49:25;6.50;99.90
43673;DHT22;41723;49.326;8.430;2022-11-20T06:51:51;6.40;99.90
43673;DHT22;41723;49.326;8.430;2022-11-20T06:54:16;6.50;99.90
43673;DHT22;41723;49.326;8.430;2022-11-20T06:56:42;6.50;99.90
43673;DHT22;41723;49.326;8.430;2022-11-20T06:59:07;6.50;99.90
43673;DHT22;41723;49.326;8.430;2022-11-20T07:01:33;6.50;99.90
43673;DHT22;41723;49.326;8.430;2022-11-20T07:03:58;6.50;99.90
43673;DHT22;41723;49.326;8.430;2022-11-20T07:06:24;6.40;99.90
43673;DHT22;41723;49.326;8.430;2022-11-20T07:08:50;6.50;99.90
43673;DHT22;41723;49.326;8.430;2022-11-20T07:11:16;6.50;99.90
43673;DHT22;41723;49.326;8.430;2022-11-20T07:13:42;6.50;99.90
43673;DHT22;41723;49.326;8.430;2022-11-20T07:16:07;6.60;99.90
43673;DHT22;41723;49.326;8.430;2022-11-20T07:18:33;6.60;99.90
43673;DHT22;41723;49.326;8.430;2022-11-20T07:21:00;6.70;99.90
43673;DHT22;41723;49.326;8.430;2022-11-20T07:23:25;6.70;99.90
43673;DHT22;41723;49.326;8.430;2022-11-20T07:25:51;6.80;99.90
43673;DHT22;41723;49.326;8.430;2022-11-20T07:28:16;6.80;99.90
43673;DHT22;41723;49.326;8.430;2022-11-20T07:30:42;6.80;99.90
43673;DHT22;41723;49.326;8.430;2022-11-20T07:33:08;6.90;99.90
43673;DHT22;41723;49.326;8.430;2022-11-20T07:35:33;7.00;99.90
43673;DHT22;41723;49.326;8.430;2022-11-20T07:37:59;7.00;99.90
43673;DHT22;41723;49.326;8.430;2022-11-20T07:40:24;7.00;99.90
43673;DHT22;41723;49.326;8.430;2022-11-20T07:42:51;7.00;99.90
43673;DHT22;41723;49.326;8.430;2022-11-20T07:45:17;7.10;99.90
43673;DHT22;41723;49.326;8.430;2022-11-20T07:47:43;7.20;99.90
43673;DHT22;41723;49.326;8.430;2022-11-20T07:50:08;7.20;99.90
43673;DHT22;41723;49.326;8.430;2022-11-20T07:52:34;7.20;99.90
43673;DHT22;41723;49.326;8.430;2022-11-20T07:55:00;7.30;99.90
43673;DHT22;41723;49.326;8.430;2022-11-20T07:57:25;7.40;99.90
43673;DHT22;41723;49.326;8.430;2022-11-20T07:59:51;7.30;99.90
43673;DHT22;41723;49.326;8.430;2022-11-20T08:02:16;7.40;99.90
43673;DHT22;41723;49.326;8.430;2022-11-20T08:04:42;7.50;99.90
43673;DHT22;41723;49.326;8.430;2022-11-20T08:07:08;7.40;99.90
43673;DHT22;41723;49.326;8.430;2022-11-20T08:09:33;7.50;99.90
43673;DHT22;41723;49.326;8.430;2022-11-20T08:11:59;7.50;99.90
43673;DHT22;41723;49.326;8.430;2022-11-20T08:14:43;7.50;99.90
43673;DHT22;41723;49.326;8.430;2022-11-20T08:17:09;7.60;99.90
43673;DHT22;41723;49.326;8.430;2022-11-20T08:19:35;7.50;99.90
43673;DHT22;41723;49.326;8.430;2022-11-20T08:22:00;7.60;99.90
43673;DHT22;41723;49.326;8.430;2022-11-20T08:24:26;7.60;99.90
43673;DHT22;41723;49.326;8.430;2022-11-20T08:26:52;7.60;99.90
43673;DHT22;41723;49.326;8.430;2022-11-20T08:29:17;7.70;99.90
43673;DHT22;41723;49.326;8.430;2022-11-20T08:31:43;7.70;99.90
43673;DHT22;41723;49.326;8.430;2022-11-20T08:34:09;7.80;99.90
43673;DHT22;41723;49.326;8.430;2022-11-20T08:36:34;7.80;99.90
43673;DHT22;41723;49.326;8.430;2022-11-20T08:39:00;7.80;99.90
43673;DHT22;41723;49.326;8.430;2022-11-20T08:41:26;7.80;99.90
43673;DHT22;41723;49.326;8.430;2022-11-20T08:44:00;7.90;99.90
43673;DHT22;41723;49.326;8.430;2022-11-20T08:46:26;7.90;99.90
43673;DHT22;41723;49.326;8.430;2022-11-20T08:48:52;7.90;99.90
43673;DHT22;41723;49.326;8.430;2022-11-20T08:51:18;8.00;99.90
43673;DHT22;41723;49.326;8.430;2022-11-20T08:53:44;7.90;99.90
43673;DHT22;41723;49.326;8.430;2022-11-20T08:56:10;7.90;99.90
43673;DHT22;41723;49.326;8.430;2022-11-20T08:58:37;7.90;99.90
43673;DHT22;41723;49.326;8.430;2022-11-20T09:01:02;7.90;99.90
43673;DHT22;41723;49.326;8.430;2022-11-20T09:03:28;8.00;99.90
43673;DHT22;41723;49.326;8.430;2022-11-20T09:05:57;8.00;99.90
43673;DHT22;41723;49.326;8.430;2022-11-20T09:08:23;8.00;99.90
43673;DHT22;41723;49.326;8.430;2022-11-20T09:10:52;8.00;99.90
43673;DHT22;41723;49.326;8.430;2022-11-20T09:13:18;8.00;99.90
43673;DHT22;41723;49.326;8.430;2022-11-20T09:15:43;8.00;99.90
43673;DHT22;41723;49.326;8.430;2022-11-20T09:18:09;8.00;99.90
43673;DHT22;41723;49.326;8.430;2022-11-20T09:20:35;8.10;99.90
43673;DHT22;41723;49.326;8.430;2022-11-20T09:23:00;8.10;99.90
43673;DHT22;41723;49.326;8.430;2022-11-20T09:25:26;8.10;99.90
43673;DHT22;41723;49.326;8.430;2022-11-20T09:27:56;8.10;99.90
43673;DHT22;41723;49.326;8.430;2022-11-20T09:30:22;8.20;99.90
43673;DHT22;41723;49.326;8.430;2022-11-20T09:32:48;8.20;99.90
43673;DHT22;41723;49.326;8.430;2022-11-20T09:35:13;8.30;99.90
43673;DHT22;41723;49.326;8.430;2022-11-20T09:37:39;8.20;99.90
43673;DHT22;41723;49.326;8.430;2022-11-20T09:40:05;8.30;99.90
43673;DHT22;41723;49.326;8.430;2022-11-20T09:42:40;8.30;99.90
43673;DHT22;41723;49.326;8.430;2022-11-20T09:47:49;8.30;99.90
43673;DHT22;41723;49.326;8.430;2022-11-20T09:55:54;8.50;99.90
43673;DHT22;41723;49.326;8.430;2022-11-20T09:58:42;8.60;99.90
43673;DHT22;41723;49.326;8.430;2022-11-20T10:01:20;8.60;99.90
43673;DHT22;41723;49.326;8.430;2022-11-20T10:06:19;8.60;99.90
43673;DHT22;41723;49.326;8.430;2022-11-20T10:11:48;8.60;99.90
43673;DHT22;41723;49.326;8.430;2022-11-20T10:15:19;8.50;99.90
43673;DHT22;41723;49.326;8.430;2022-11-20T10:30:08;8.60;99.90
43673;DHT22;41723;49.326;8.430;2022-11-20T10:32:44;8.60;99.90
43673;DHT22;41723;49.326;8.430;2022-11-20T10:35:21;8.50;99.90
43673;DHT22;41723;49.326;8.430;2022-11-20T10:37:50;8.60;99.90
43673;DHT22;41723;49.326;8.430;2022-11-20T10:40:28;8.60;99.90
43673;DHT22;41723;49.326;8.430;2022-11-20T10:43:01;8.60;99.90
43673;DHT22;41723;49.326;8.430;2022-11-20T10:45:33;8.70;99.90
43673;DHT22;41723;49.326;8.430;2022-11-20T10:50:33;8.80;99.90
43673;DHT22;41723;49.326;8.430;2022-11-20T11:01:02;8.90;99.90
43673;DHT22;41723;49.326;8.430;2022-11-20T11:03:29;8.90;99.90
43673;DHT22;41723;49.326;8.430;2022-11-20T11:08:32;9.10;99.90
43673;DHT22;41723;49.326;8.430;2022-11-20T11:11:00;9.20;99.90
43673;DHT22;41723;49.326;8.430;2022-11-20T11:13:28;9.30;99.90
43673;DHT22;41723;49.326;8.430;2022-11-20T11:15:54;9.30;99.90
43673;DHT22;41723;49.326;8.430;2022-11-20T11:18:24;9.40;99.90
43673;DHT22;41723;49.326;8.430;2022-11-20T11:20:50;9.40;99.90
43673;DHT22;41723;49.326;8.430;2022-11-20T11:23:28;9.40;99.90
43673;DHT22;41723;49.326;8.430;2022-11-20T11:25:58;9.50;99.90
43673;DHT22;41723;49.326;8.430;2022-11-20T11:28:25;9.70;99.90
43673;DHT22;41723;49.326;8.430;2022-11-20T11:30:53;9.70;99.90
43673;DHT22;41723;49.326;8.430;2022-11-20T11:33:20;9.80;99.90
43673;DHT22;41723;49.326;8.430;2022-11-20T11:35:53;9.90;99.90
43673;DHT22;41723;49.326;8.430;2022-11-20T11:38:21;9.80;99.90
43673;DHT22;41723;49.326;8.430;2022-11-20T11:40:47;9.80;99.90
43673;DHT22;41723;49.326;8.430;2022-11-20T11:43:26;9.80;99.90
43673;DHT22;41723;49.326;8.430;2022-11-20T11:49:08;9.80;99.90
43673;DHT22;41723;49.326;8.430;2022-11-20T11:54:16;9.90;99.90
43673;DHT22;41723;49.326;8.430;2022-11-20T11:56:43;9.80;99.90
43673;DHT22;41723;49.326;8.430;2022-11-20T11:59:10;10.00;99.90
43673;DHT22;41723;49.326;8.430;2022-11-20T12:01:39;10.10;99.90
43673;DHT22;41723;49.326;8.430;2022-11-20T12:04:18;9.90;99.90
43673;DHT22;41723;49.326;8.430;2022-11-20T12:07:10;9.90;99.90
43673;DHT22;41723;49.326;8.430;2022-11-20T12:09:37;9.70;99.90
43673;DHT22;41723;49.326;8.430;2022-11-20T12:12:05;9.70;99.90
43673;DHT22;41723;49.326;8.430;2022-11-20T12:14:34;9.90;99.90
43673;DHT22;41723;49.326;8.430;2022-11-20T12:17:01;9.90;99.90
43673;DHT22;41723;49.326;8.430;2022-11-20T12:19:28;10.20;99.90
43673;DHT22;41723;49.326;8.430;2022-11-20T12:38:22;10.90;99.90
43673;DHT22;41723;49.326;8.430;2022-11-20T12:45:58;11.20;99.90
43673;DHT22;41723;49.326;8.430;2022-11-20T13:01:38;10.80;99.90
43673;DHT22;41723;49.326;8.430;2022-11-20T13:06:50;10.60;99.90
43673;DHT22;41723;49.326;8.430;2022-11-20T13:09:17;10.60;99.90
43673;DHT22;41723;49.326;8.430;2022-11-20T13:14:39;10.60;99.90
43673;DHT22;41723;49.326;8.430;2022-11-20T13:17:09;10.60;99.90
43673;DHT22;41723;49.326;8.430;2022-11-20T13:19:36;10.60;99.90
43673;DHT22;41723;49.326;8.430;2022-11-20T13:22:02;10.40;99.90
43673;DHT22;41723;49.326;8.430;2022-11-20T13:24:29;10.40;99.90
43673;DHT22;41723;49.326;8.430;2022-11-20T13:29:27;10.20;99.90
43673;DHT22;41723;49.326;8.430;2022-11-20T13:32:01;10.10;99.90
43673;DHT22;41723;49.326;8.430;2022-11-20T13:34:27;10.10;99.90
43673;DHT22;41723;49.326;8.430;2022-11-20T13:36:54;10.00;99.90
43673;DHT22;41723;49.326;8.430;2022-11-20T13:39:33;10.00;99.50
43673;DHT22;41723;49.326;8.430;2022-11-20T13:42:00;10.00;99.70
43673;DHT22;41723;49.326;8.430;2022-11-20T13:44:29;10.00;99.50
43673;DHT22;41723;49.326;8.430;2022-11-20T13:46:55;9.90;98.80
43673;DHT22;41723;49.326;8.430;2022-11-20T13:51:47;9.90;99.90
43673;DHT22;41723;49.326;8.430;2022-11-20T14:02:12;9.80;99.30
43673;DHT22;41723;49.326;8.430;2022-11-20T14:04:40;9.80;99.50
43673;DHT22;41723;49.326;8.430;2022-11-20T14:07:07;9.80;99.70
43673;DHT22;41723;49.326;8.430;2022-11-20T14:09:34;10.00;99.60
43673;DHT22;41723;49.326;8.430;2022-11-20T14:12:01;9.90;99.10
43673;DHT22;41723;49.326;8.430;2022-11-20T14:14:30;9.90;99.70
43673;DHT22;41723;49.326;8.430;2022-11-20T14:17:18;9.80;99.20
43673;DHT22;41723;49.326;8.430;2022-11-20T14:19:42;9.80;99.90
43673;DHT22;41723;49.326;8.430;2022-11-20T14:22:14;9.70;99.80
43673;DHT22;41723;49.326;8.430;2022-11-20T14:24:42;9.70;99.90
43673;DHT22;41723;49.326;8.430;2022-11-20T14:27:14;9.70;99.90
43673;DHT22;41723;49.326;8.430;2022-11-20T14:29:41;9.60;99.90
43673;DHT22;41723;49.326;8.430;2022-11-20T14:32:08;9.70;99.90
43673;DHT22;41723;49.326;8.430;2022-11-20T14:34:36;9.60;99.90
43673;DHT22;41723;49.326;8.430;2022-11-20T14:37:06;9.60;99.90
43673;DHT22;41723;49.326;8.430;2022-11-20T14:39:37;9.60;99.90
43673;DHT22;41723;49.326;8.430;2022-11-20T14:42:10;9.60;99.90
43673;DHT22;41723;49.326;8.430;2022-11-20T14:44:39;9.60;99.90
43673;DHT22;41723;49.326;8.430;2022-11-20T14:47:06;9.60;99.90
43673;DHT22;41723;49.326;8.430;2022-11-20T14:49:32;9.60;99.90
43673;DHT22;41723;49.326;8.430;2022-11-20T14:51:58;9.50;99.90
43673;DHT22;41723;49.326;8.430;2022-11-20T14:54:24;9.60;99.90
43673;DHT22;41723;49.326;8.430;2022-11-20T14:56:58;9.60;99.90
43673;DHT22;41723;49.326;8.430;2022-11-20T14:59:29;9.50;99.90
43673;DHT22;41723;49.326;8.430;2022-11-20T15:01:59;9.60;99.90
43673;DHT22;41723;49.326;8.430;2022-11-20T15:04:25;9.50;99.90
43673;DHT22;41723;49.326;8.430;2022-11-20T15:06:52;9.50;99.90
43673;DHT22;41723;49.326;8.430;2022-11-20T15:09:18;9.60;99.90
43673;DHT22;41723;49.326;8.430;2022-11-20T15:12:02;9.60;99.90
43673;DHT22;41723;49.326;8.430;2022-11-20T15:14:28;9.60;99.90
43673;DHT22;41723;49.326;8.430;2022-11-20T15:16:55;9.50;99.90
43673;DHT22;41723;49.326;8.430;2022-11-20T15:19:25;9.50;99.90
43673;DHT22;41723;49.326;8.430;2022-11-20T15:21:51;9.50;99.90
43673;DHT22;41723;49.326;8.430;2022-11-20T15:24:18;9.50;99.90
43673;DHT22;41723;49.326;8.430;2022-11-20T15:26:44;9.50;99.90
43673;DHT22;41723;49.326;8.430;2022-11-20T15:29:13;9.40;99.90
43673;DHT22;41723;49.326;8.430;2022-11-20T15:31:39;9.40;99.90
43673;DHT22;41723;49.326;8.430;2022-11-20T15:34:14;9.40;99.90
43673;DHT22;41723;49.326;8.430;2022-11-20T15:36:40;9.40;99.90
43673;DHT22;41723;49.326;8.430;2022-11-20T15:39:06;9.40;99.90
43673;DHT22;41723;49.326;8.430;2022-11-20T15:41:35;9.40;99.90
43673;DHT22;41723;49.326;8.430;2022-11-20T15:44:01;9.30;99.90
43673;DHT22;41723;49.326;8.430;2022-11-20T15:46:28;9.20;99.90
43673;DHT22;41723;49.326;8.430;2022-11-20T15:48:54;9.20;99.90
43673;DHT22;41723;49.326;8.430;2022-11-20T15:53:49;9.20;99.90
43673;DHT22;41723;49.326;8.430;2022-11-20T15:56:16;9.20;99.90
43673;DHT22;41723;49.326;8.430;2022-11-20T15:58:42;9.20;99.90
43673;DHT22;41723;49.326;8.430;2022-11-20T16:01:11;9.20;99.90
43673;DHT22;41723;49.326;8.430;2022-11-20T16:03:38;9.20;99.90
43673;DHT22;41723;49.326;8.430;2022-11-20T16:06:03;9.20;99.90
43673;DHT22;41723;49.326;8.430;2022-11-20T16:08:29;9.20;99.90
43673;DHT22;41723;49.326;8.430;2022-11-20T16:10:55;9.20;99.90
43673;DHT22;41723;49.326;8.430;2022-11-20T16:13:21;9.20;99.90
43673;DHT22;41723;49.326;8.430;2022-11-20T16:16:07;9.10;99.90
43673;DHT22;41723;49.326;8.430;2022-11-20T16:18:35;9.10;99.90
43673;DHT22;41723;49.326;8.430;2022-11-20T16:21:01;9.10;99.90
43673;DHT22;41723;49.326;8.430;2022-11-20T16:23:27;9.20;99.90
43673;DHT22;41723;49.326;8.430;2022-11-20T16:25:52;9.20;99.90
43673;DHT22;41723;49.326;8.430;2022-11-20T16:28:18;9.20;99.90
43673;DHT22;41723;49.326;8.430;2022-11-20T16:30:45;9.20;99.90
43673;DHT22;41723;49.326;8.430;2022-11-20T16:33:11;9.20;99.90
43673;DHT22;41723;49.326;8.430;2022-11-20T16:35:37;9.10;99.90
43673;DHT22;41723;49.326;8.430;2022-11-20T16:38:03;9.10;99.90
43673;DHT22;41723;49.326;8.430;2022-11-20T16:40:29;9.10;99.90
43673;DHT22;41723;49.326;8.430;2022-11-20T16:42:54;9.10;99.90
43673;DHT22;41723;49.326;8.430;2022-11-20T16:45:20;9.10;99.90
43673;DHT22;41723;49.326;8.430;2022-11-20T16:47:46;9.20;99.90
43673;DHT22;41723;49.326;8.430;2022-11-20T16:50:12;9.10;99.90
43673;DHT22;41723;49.326;8.430;2022-11-20T16:52:38;9.10;99.90
43673;DHT22;41723;49.326;8.430;2022-11-20T16:55:03;9.10;99.90
43673;DHT22;41723;49.326;8.430;2022-11-20T16:57:29;9.10;99.90
43673;DHT22;41723;49.326;8.430;2022-11-20T16:59:57;9.10;99.90
43673;DHT22;41723;49.326;8.430;2022-11-20T17:02:23;9.10;99.90
43673;DHT22;41723;49.326;8.430;2022-11-20T17:04:48;9.10;99.90
43673;DHT22;41723;49.326;8.430;2022-11-20T17:07:14;9.10;99.90
43673;DHT22;41723;49.326;8.430;2022-11-20T17:09:40;9.00;99.90
43673;DHT22;41723;49.326;8.430;2022-11-20T17:12:05;9.00;99.90
43673;DHT22;41723;49.326;8.430;2022-11-20T17:14:31;9.10;99.90
43673;DHT22;41723;49.326;8.430;2022-11-20T17:16:57;9.10;99.90
43673;DHT22;41723;49.326;8.430;2022-11-20T17:19:23;9.00;99.90
43673;DHT22;41723;49.326;8.430;2022-11-20T17:21:48;9.10;99.90
43673;DHT22;41723;49.326;8.430;2022-11-20T17:24:14;9.00;99.90
43673;DHT22;41723;49.326;8.430;2022-11-20T17:26:43;9.00;99.90
43673;DHT22;41723;49.326;8.430;2022-11-20T17:29:12;9.00;99.90